sensor_id;sensor_type;location;lat;lon;timestamp;pressure;altitude;pressure_sealevel;temperature;humidity
52975;BME280;38839;45.186;5.720;2023-04-28T00:01:47;99164.97;;;17.54;53.32
52975;BME280;38839;45.186;5.720;2023-04-28T00:04:13;99163.34;;;17.50;53.17
52975;BME280;38839;45.186;5.720;2023-04-28T00:06:38;99168.69;;;17.47;53.34
52975;BME280;38839;45.186;5.720;2023-04-28T00:09:04;99177.41;;;17.49;53.44
52975;BME280;38839;45.186;5.720;2023-04-28T00:11:29;99169.69;;;17.43;53.59
52975;BME280;38839;45.186;5.720;2023-04-28T00:13:55;99178.56;;;17.40;53.68
52975;BME280;38839;45.186;5.720;2023-04-28T00:16:20;99166.34;;;17.38;53.59
52975;BME280;38839;45.186;5.720;2023-04-28T00:18:45;99163.59;;;17.41;53.57
52975;BME280;38839;45.186;5.720;2023-04-28T00:21:11;99170.50;;;17.45;53.71
52975;BME280;38839;45.186;5.720;2023-04-28T00:23:36;99171.41;;;17.45;53.62
52975;BME280;38839;45.186;5.720;2023-04-28T00:26:01;99160.78;;;17.47;53.60
52975;BME280;38839;45.186;5.720;2023-04-28T00:28:27;99167.78;;;17.48;53.54
52975;BME280;38839;45.186;5.720;2023-04-28T00:30:52;99168.69;;;17.47;53.68
52975;BME280;38839;45.186;5.720;2023-04-28T00:33:17;99168.69;;;17.47;53.63
52975;BME280;38839;45.186;5.720;2023-04-28T00:35:43;99161.72;;;17.46;54.02
52975;BME280;38839;45.186;5.720;2023-04-28T00:38:08;99161.75;;;17.44;53.99
52975;BME280;38839;45.186;5.720;2023-04-28T00:40:35;99161.66;;;17.47;53.71
52975;BME280;38839;45.186;5.720;2023-04-28T00:43:01;99152.97;;;17.44;54.05
52975;BME280;38839;45.186;5.720;2023-04-28T00:45:27;99149.53;;;17.42;54.30
52975;BME280;38839;45.186;5.720;2023-04-28T00:47:53;99146.78;;;17.45;54.06
52975;BME280;38839;45.186;5.720;2023-04-28T00:50:19;99143.28;;;17.44;54.30
52975;BME280;38839;45.186;5.720;2023-04-28T00:52:46;99139.06;;;17.39;54.69
52975;BME280;38839;45.186;5.720;2023-04-28T00:55:14;99138.34;;;17.34;54.76
52975;BME280;38839;45.186;5.720;2023-04-28T00:57:40;99141.03;;;17.32;54.69
52975;BME280;38839;45.186;5.720;2023-04-28T01:00:06;99148.09;;;17.32;54.70
52975;BME280;38839;45.186;5.720;2023-04-28T01:02:32;99144.72;;;17.26;54.88
52975;BME280;38839;45.186;5.720;2023-04-28T01:04:58;99136.75;;;17.28;54.78
52975;BME280;38839;45.186;5.720;2023-04-28T01:07:24;99144.63;;;17.29;54.93
52975;BME280;38839;45.186;5.720;2023-04-28T01:09:49;99143.97;;;17.23;54.96
52975;BME280;38839;45.186;5.720;2023-04-28T01:12:15;99149.97;;;17.26;55.01
52975;BME280;38839;45.186;5.720;2023-04-28T01:14:41;99147.59;;;17.19;55.11
52975;BME280;38839;45.186;5.720;2023-04-28T01:17:07;99149.31;;;17.20;55.06
52975;BME280;38839;45.186;5.720;2023-04-28T01:19:32;99139.00;;;17.12;55.28
52975;BME280;38839;45.186;5.720;2023-04-28T01:21:58;99140.00;;;17.08;55.28
52975;BME280;38839;45.186;5.720;2023-04-28T01:24:23;99140.09;;;17.05;55.38
52975;BME280;38839;45.186;5.720;2023-04-28T01:26:49;99147.25;;;17.00;55.58
52975;BME280;38839;45.186;5.720;2023-04-28T01:29:14;99145.63;;;16.96;55.61
52975;BME280;38839;45.186;5.720;2023-04-28T01:31:40;99143.09;;;16.93;55.57
52975;BME280;38839;45.186;5.720;2023-04-28T01:34:05;99151.06;;;16.89;55.84
52975;BME280;38839;45.186;5.720;2023-04-28T01:36:31;99151.19;;;16.86;55.90
52975;BME280;38839;45.186;5.720;2023-04-28T01:38:58;99146.13;;;16.77;56.27
52975;BME280;38839;45.186;5.720;2023-04-28T01:41:23;99151.50;;;16.74;56.25
52975;BME280;38839;45.186;5.720;2023-04-28T01:43:48;99156.06;;;16.67;56.47
52975;BME280;38839;45.186;5.720;2023-04-28T01:46:14;99162.44;;;16.59;56.68
52975;BME280;38839;45.186;5.720;2023-04-28T01:48:39;99159.00;;;16.57;56.82
52975;BME280;38839;45.186;5.720;2023-04-28T01:51:05;99164.25;;;16.57;56.72
52975;BME280;38839;45.186;5.720;2023-04-28T01:53:30;99152.19;;;16.49;56.96
52975;BME280;38839;45.186;5.720;2023-04-28T01:55:55;99162.72;;;16.49;56.71
52975;BME280;38839;45.186;5.720;2023-04-28T01:58:22;99155.78;;;16.45;57.08
52975;BME280;38839;45.186;5.720;2023-04-28T02:00:48;99162.88;;;16.43;57.10
52975;BME280;38839;45.186;5.720;2023-04-28T02:03:15;99161.22;;;16.39;57.44
52975;BME280;38839;45.186;5.720;2023-04-28T02:05:40;99163.88;;;16.39;57.51
52975;BME280;38839;45.186;5.720;2023-04-28T02:08:06;99157.13;;;16.29;57.41
52975;BME280;38839;45.186;5.720;2023-04-28T02:10:31;99156.28;;;16.27;57.54
52975;BME280;38839;45.186;5.720;2023-04-28T02:12:56;99153.78;;;16.22;57.43
52975;BME280;38839;45.186;5.720;2023-04-28T02:15:22;99159.91;;;16.23;57.43
52975;BME280;38839;45.186;5.720;2023-04-28T02:17:47;99162.59;;;16.20;57.58
52975;BME280;38839;45.186;5.720;2023-04-28T02:20:12;99160.19;;;16.12;57.88
52975;BME280;38839;45.186;5.720;2023-04-28T02:22:40;99167.19;;;16.12;58.15
52975;BME280;38839;45.186;5.720;2023-04-28T02:25:07;99165.53;;;16.07;57.89
52975;BME280;38839;45.186;5.720;2023-04-28T02:27:34;99165.63;;;16.04;58.01
52975;BME280;38839;45.186;5.720;2023-04-28T02:30:02;99161.25;;;16.03;58.12
52975;BME280;38839;45.186;5.720;2023-04-28T02:32:27;99164.00;;;16.00;58.20
52975;BME280;38839;45.186;5.720;2023-04-28T02:34:53;99162.19;;;16.02;58.11
52975;BME280;38839;45.186;5.720;2023-04-28T02:37:19;99164.72;;;16.05;58.12
52975;BME280;38839;45.186;5.720;2023-04-28T02:39:45;99164.78;;;16.04;58.30
52975;BME280;38839;45.186;5.720;2023-04-28T02:42:10;99163.88;;;16.05;58.12
52975;BME280;38839;45.186;5.720;2023-04-28T02:44:35;99156.81;;;16.05;58.12
52975;BME280;38839;45.186;5.720;2023-04-28T02:47:01;99157.97;;;15.95;58.20
52975;BME280;38839;45.186;5.720;2023-04-28T02:49:26;99153.63;;;15.94;58.74
52975;BME280;38839;45.186;5.720;2023-04-28T02:51:51;99151.00;;;15.94;58.79
52975;BME280;38839;45.186;5.720;2023-04-28T02:54:17;99151.00;;;15.93;59.01
52975;BME280;38839;45.186;5.720;2023-04-28T02:56:51;99147.97;;;15.74;60.88
52975;BME280;38839;45.186;5.720;2023-04-28T02:59:17;99161.13;;;15.74;60.66
52975;BME280;38839;45.186;5.720;2023-04-28T03:01:42;99160.22;;;15.75;60.88
52975;BME280;38839;45.186;5.720;2023-04-28T03:04:07;99157.63;;;15.72;61.13
52975;BME280;38839;45.186;5.720;2023-04-28T03:06:33;99162.97;;;15.68;61.43
52975;BME280;38839;45.186;5.720;2023-04-28T03:08:58;99163.16;;;15.61;62.17
52975;BME280;38839;45.186;5.720;2023-04-28T03:11:23;99166.72;;;15.58;62.65
52975;BME280;38839;45.186;5.720;2023-04-28T03:13:48;99166.72;;;15.58;62.50
52975;BME280;38839;45.186;5.720;2023-04-28T03:16:14;99151.97;;;15.53;63.13
52975;BME280;38839;45.186;5.720;2023-04-28T03:18:39;99152.09;;;15.46;63.20
52975;BME280;38839;45.186;5.720;2023-04-28T03:21:05;99155.50;;;15.50;63.13
52975;BME280;38839;45.186;5.720;2023-04-28T03:23:30;99157.97;;;15.58;63.05
52975;BME280;38839;45.186;5.720;2023-04-28T03:25:56;99162.34;;;15.59;63.11
52975;BME280;38839;45.186;5.720;2023-04-28T03:28:21;99163.09;;;15.62;63.11
52975;BME280;38839;45.186;5.720;2023-04-28T03:30:46;99168.34;;;15.64;62.78
52975;BME280;38839;45.186;5.720;2023-04-28T03:33:12;99170.97;;;15.64;62.73
52975;BME280;38839;45.186;5.720;2023-04-28T03:35:37;99177.97;;;15.65;62.37
52975;BME280;38839;45.186;5.720;2023-04-28T03:38:02;99179.84;;;15.58;62.29
52975;BME280;38839;45.186;5.720;2023-04-28T03:40:28;99179.84;;;15.58;62.05
52975;BME280;38839;45.186;5.720;2023-04-28T03:42:53;99189.50;;;15.59;61.81
52975;BME280;38839;45.186;5.720;2023-04-28T03:45:18;99187.75;;;15.58;61.60
52975;BME280;38839;45.186;5.720;2023-04-28T03:47:44;99191.28;;;15.57;61.68
52975;BME280;38839;45.186;5.720;2023-04-28T03:50:09;99189.53;;;15.56;61.83
52975;BME280;38839;45.186;5.720;2023-04-28T03:52:35;99191.28;;;15.57;61.63
52975;BME280;38839;45.186;5.720;2023-04-28T03:55:00;99193.13;;;15.52;61.63
52975;BME280;38839;45.186;5.720;2023-04-28T03:57:25;99200.88;;;15.58;61.61
52975;BME280;38839;45.186;5.720;2023-04-28T03:59:51;99195.63;;;15.58;61.44
52975;BME280;38839;45.186;5.720;2023-04-28T04:02:16;99194.81;;;15.56;61.30
52975;BME280;38839;45.186;5.720;2023-04-28T04:04:41;99197.28;;;15.62;61.32
52975;BME280;38839;45.186;5.720;2023-04-28T04:07:07;99198.03;;;15.69;61.07
52975;BME280;38839;45.186;5.720;2023-04-28T04:09:32;99187.47;;;15.70;60.96
52975;BME280;38839;45.186;5.720;2023-04-28T04:11:57;99198.03;;;15.69;61.18
52975;BME280;38839;45.186;5.720;2023-04-28T04:14:23;99203.28;;;15.69;60.99
52975;BME280;38839;45.186;5.720;2023-04-28T04:16:48;99214.66;;;15.71;60.94
52975;BME280;38839;45.186;5.720;2023-04-28T04:19:14;99210.25;;;15.72;61.13
52975;BME280;38839;45.186;5.720;2023-04-28T04:21:39;99213.75;;;15.74;61.03
52975;BME280;38839;45.186;5.720;2023-04-28T04:24:05;99212.09;;;15.66;61.43
52975;BME280;38839;45.186;5.720;2023-04-28T04:26:31;99206.06;;;15.63;61.64
52975;BME280;38839;45.186;5.720;2023-04-28T04:28:56;99189.34;;;15.65;61.61
52975;BME280;38839;45.186;5.720;2023-04-28T04:31:21;99193.66;;;15.68;61.97
52975;BME280;38839;45.186;5.720;2023-04-28T04:33:47;99197.25;;;15.64;62.08
52975;BME280;38839;45.186;5.720;2023-04-28T04:36:12;99200.00;;;15.59;62.36
52975;BME280;38839;45.186;5.720;2023-04-28T04:38:38;99200.00;;;15.59;62.40
52975;BME280;38839;45.186;5.720;2023-04-28T04:41:03;99201.16;;;15.46;62.80
52975;BME280;38839;45.186;5.720;2023-04-28T04:43:29;99195.56;;;15.22;63.61
52975;BME280;38839;45.186;5.720;2023-04-28T04:45:54;99188.78;;;15.12;64.10
52975;BME280;38839;45.186;5.720;2023-04-28T04:48:19;99187.94;;;15.10;64.09
52975;BME280;38839;45.186;5.720;2023-04-28T04:50:45;99189.88;;;15.00;65.09
52975;BME280;38839;45.186;5.720;2023-04-28T04:53:10;99187.03;;;15.11;64.67
52975;BME280;38839;45.186;5.720;2023-04-28T04:55:36;99197.25;;;15.25;64.37
52975;BME280;38839;45.186;5.720;2023-04-28T04:58:02;99195.16;;;15.41;63.94
52975;BME280;38839;45.186;5.720;2023-04-28T05:00:27;99199.47;;;15.43;63.68
52975;BME280;38839;45.186;5.720;2023-04-28T05:02:53;99202.53;;;15.64;62.92
52975;BME280;38839;45.186;5.720;2023-04-28T05:05:18;99201.41;;;15.76;62.69
52975;BME280;38839;45.186;5.720;2023-04-28T05:07:44;99195.41;;;15.69;62.85
52975;BME280;38839;45.186;5.720;2023-04-28T05:10:10;99199.38;;;15.87;62.74
52975;BME280;38839;45.186;5.720;2023-04-28T05:12:36;99196.44;;;15.99;62.48
52975;BME280;38839;45.186;5.720;2023-04-28T05:15:05;99197.22;;;16.04;62.62
52975;BME280;38839;45.186;5.720;2023-04-28T05:17:32;99203.97;;;16.15;63.22
52975;BME280;38839;45.186;5.720;2023-04-28T05:19:57;99209.09;;;16.21;62.32
52975;BME280;38839;45.186;5.720;2023-04-28T05:22:23;99209.78;;;16.27;62.03
52975;BME280;38839;45.186;5.720;2023-04-28T05:24:50;99196.34;;;16.38;61.92
52975;BME280;38839;45.186;5.720;2023-04-28T05:27:15;99200.19;;;19.10;55.35
52975;BME280;38839;45.186;5.720;2023-04-28T05:29:40;99199.22;;;22.19;46.89
52975;BME280;38839;45.186;5.720;2023-04-28T05:32:06;99201.94;;;20.02;50.97
52975;BME280;38839;45.186;5.720;2023-04-28T05:34:31;99203.81;;;18.32;55.48
52975;BME280;38839;45.186;5.720;2023-04-28T05:36:57;99217.91;;;18.04;56.70
52975;BME280;38839;45.186;5.720;2023-04-28T05:39:22;99214.66;;;17.68;57.47
52975;BME280;38839;45.186;5.720;2023-04-28T05:41:47;99209.91;;;17.21;59.09
52975;BME280;38839;45.186;5.720;2023-04-28T05:44:13;99217.34;;;17.37;58.56
52975;BME280;38839;45.186;5.720;2023-04-28T05:46:38;99220.16;;;17.30;58.66
52975;BME280;38839;45.186;5.720;2023-04-28T05:49:04;99219.13;;;17.06;59.46
52975;BME280;38839;45.186;5.720;2023-04-28T05:51:29;99211.34;;;17.02;59.43
52975;BME280;38839;45.186;5.720;2023-04-28T05:53:54;99211.34;;;17.02;59.64
52975;BME280;38839;45.186;5.720;2023-04-28T05:56:20;99213.97;;;17.02;59.45
52975;BME280;38839;45.186;5.720;2023-04-28T05:58:45;99217.59;;;16.98;59.55
52975;BME280;38839;45.186;5.720;2023-04-28T06:01:12;99218.72;;;16.89;59.57
52975;BME280;38839;45.186;5.720;2023-04-28T06:03:38;99214.56;;;17.12;59.23
52975;BME280;38839;45.186;5.720;2023-04-28T06:06:06;99215.53;;;17.09;58.96
52975;BME280;38839;45.186;5.720;2023-04-28T06:08:31;99206.63;;;17.13;59.06
52975;BME280;38839;45.186;5.720;2023-04-28T06:10:57;99217.06;;;17.16;58.85
52975;BME280;38839;45.186;5.720;2023-04-28T06:13:22;99215.78;;;17.31;58.61
52975;BME280;38839;45.186;5.720;2023-04-28T06:15:47;99210.81;;;17.50;58.22
52975;BME280;38839;45.186;5.720;2023-04-28T06:18:13;99211.53;;;17.85;57.17
52975;BME280;38839;45.186;5.720;2023-04-28T06:20:40;99211.00;;;18.00;56.62
52975;BME280;38839;45.186;5.720;2023-04-28T06:23:06;99216.91;;;18.08;56.13
52975;BME280;38839;45.186;5.720;2023-04-28T06:25:33;99212.59;;;18.06;55.92
52975;BME280;38839;45.186;5.720;2023-04-28T06:27:58;99208.91;;;18.12;55.63
52975;BME280;38839;45.186;5.720;2023-04-28T06:30:24;99210.72;;;18.09;55.68
52975;BME280;38839;45.186;5.720;2023-04-28T06:32:49;99208.66;;;17.93;56.27
52975;BME280;38839;45.186;5.720;2023-04-28T06:35:15;99208.06;;;17.83;56.61
52975;BME280;38839;45.186;5.720;2023-04-28T06:37:41;99220.28;;;17.85;56.83
52975;BME280;38839;45.186;5.720;2023-04-28T06:40:07;99220.13;;;17.90;56.80
52975;BME280;38839;45.186;5.720;2023-04-28T06:42:33;99211.53;;;17.85;56.94
52975;BME280;38839;45.186;5.720;2023-04-28T06:44:58;99220.91;;;17.94;56.72
52975;BME280;38839;45.186;5.720;2023-04-28T06:47:23;99220.06;;;17.93;56.46
52975;BME280;38839;45.186;5.720;2023-04-28T06:49:49;99232.25;;;17.97;56.56
52975;BME280;38839;45.186;5.720;2023-04-28T06:52:15;99229.19;;;17.83;56.95
52975;BME280;38839;45.186;5.720;2023-04-28T06:54:40;99212.53;;;17.79;57.15
52975;BME280;38839;45.186;5.720;2023-04-28T06:57:06;99220.06;;;17.93;57.18
52975;BME280;38839;45.186;5.720;2023-04-28T06:59:31;99220.56;;;18.04;56.65
52975;BME280;38839;45.186;5.720;2023-04-28T07:01:57;99243.44;;;18.32;56.10
52975;BME280;38839;45.186;5.720;2023-04-28T07:04:22;99228.81;;;18.22;56.42
52975;BME280;38839;45.186;5.720;2023-04-28T07:06:47;99229.41;;;18.30;56.02
52975;BME280;38839;45.186;5.720;2023-04-28T07:09:13;99229.69;;;18.47;55.74
52975;BME280;38839;45.186;5.720;2023-04-28T07:11:40;99226.56;;;18.88;54.74
52975;BME280;38839;45.186;5.720;2023-04-28T07:14:05;99225.84;;;19.08;54.27
52975;BME280;38839;45.186;5.720;2023-04-28T07:16:32;99219.63;;;19.09;54.32
52975;BME280;38839;45.186;5.720;2023-04-28T07:18:57;99227.75;;;19.28;53.86
52975;BME280;38839;45.186;5.720;2023-04-28T07:21:23;99221.69;;;19.01;53.59
52975;BME280;38839;45.186;5.720;2023-04-28T07:23:48;99223.06;;;18.87;53.92
52975;BME280;38839;45.186;5.720;2023-04-28T07:26:14;99217.47;;;18.70;53.97
52975;BME280;38839;45.186;5.720;2023-04-28T07:28:41;99227.78;;;18.78;53.79
52975;BME280;38839;45.186;5.720;2023-04-28T07:31:06;99230.34;;;18.81;53.70
52975;BME280;38839;45.186;5.720;2023-04-28T07:33:32;99226.97;;;19.01;53.46
52975;BME280;38839;45.186;5.720;2023-04-28T07:35:57;99219.84;;;19.03;53.00
52975;BME280;38839;45.186;5.720;2023-04-28T07:38:23;99224.44;;;19.21;52.50
52975;BME280;38839;45.186;5.720;2023-04-28T07:40:48;99226.16;;;19.46;51.76
52975;BME280;38839;45.186;5.720;2023-04-28T07:43:14;99213.44;;;20.01;50.42
52975;BME280;38839;45.186;5.720;2023-04-28T07:45:40;99218.56;;;20.06;49.99
52975;BME280;38839;45.186;5.720;2023-04-28T07:48:06;99211.31;;;20.09;49.99
52975;BME280;38839;45.186;5.720;2023-04-28T07:50:31;99212.16;;;20.32;49.37
52975;BME280;38839;45.186;5.720;2023-04-28T07:52:57;99215.31;;;20.62;48.52
52975;BME280;38839;45.186;5.720;2023-04-28T07:55:23;99208.13;;;20.66;48.12
52975;BME280;38839;45.186;5.720;2023-04-28T07:57:48;99210.25;;;20.36;48.92
52975;BME280;38839;45.186;5.720;2023-04-28T08:00:14;99220.72;;;20.18;49.51
52975;BME280;38839;45.186;5.720;2023-04-28T08:02:40;99218.66;;;20.25;49.48
52975;BME280;38839;45.186;5.720;2023-04-28T08:05:05;99220.22;;;20.51;49.01
52975;BME280;38839;45.186;5.720;2023-04-28T08:07:33;99214.31;;;20.85;48.39
52975;BME280;38839;45.186;5.720;2023-04-28T08:09:58;99205.63;;;20.41;48.84
52975;BME280;38839;45.186;5.720;2023-04-28T08:12:25;99212.09;;;20.34;49.14
52975;BME280;38839;45.186;5.720;2023-04-28T08:14:50;99202.56;;;20.29;49.24
52975;BME280;38839;45.186;5.720;2023-04-28T08:17:16;99205.09;;;20.53;48.50
52975;BME280;38839;45.186;5.720;2023-04-28T08:19:42;99214.94;;;21.11;47.62
52975;BME280;38839;45.186;5.720;2023-04-28T08:22:10;99203.56;;;21.28;47.25
52975;BME280;38839;45.186;5.720;2023-04-28T08:24:36;99209.72;;;21.28;46.94
52975;BME280;38839;45.186;5.720;2023-04-28T08:27:02;99202.78;;;21.45;46.71
52975;BME280;38839;45.186;5.720;2023-04-28T08:29:28;99208.09;;;21.83;46.28
52975;BME280;38839;45.186;5.720;2023-04-28T08:31:54;99210.78;;;22.37;44.79
52975;BME280;38839;45.186;5.720;2023-04-28T08:34:19;99207.34;;;22.52;44.30
52975;BME280;38839;45.186;5.720;2023-04-28T08:36:45;99219.16;;;22.46;44.50
52975;BME280;38839;45.186;5.720;2023-04-28T08:39:11;99217.63;;;22.93;43.39
52975;BME280;38839;45.186;5.720;2023-04-28T08:41:37;99207.47;;;23.01;42.94
52975;BME280;38839;45.186;5.720;2023-04-28T08:44:10;99211.88;;;23.18;42.46
52975;BME280;38839;45.186;5.720;2023-04-28T08:46:39;99214.03;;;23.27;42.58
52975;BME280;38839;45.186;5.720;2023-04-28T08:49:06;99206.91;;;23.44;42.34
52975;BME280;38839;45.186;5.720;2023-04-28T08:51:49;99206.06;;;23.59;42.02
52975;BME280;38839;45.186;5.720;2023-04-28T08:54:18;99194.50;;;23.92;41.48
52975;BME280;38839;45.186;5.720;2023-04-28T08:56:45;99195.25;;;23.62;41.28
52975;BME280;38839;45.186;5.720;2023-04-28T08:59:11;99191.28;;;23.38;42.11
52975;BME280;38839;45.186;5.720;2023-04-28T09:01:37;99193.69;;;23.26;42.62
52975;BME280;38839;45.186;5.720;2023-04-28T09:04:03;99206.56;;;23.18;42.72
52975;BME280;38839;45.186;5.720;2023-04-28T09:06:34;99201.41;;;22.98;43.02
52975;BME280;38839;45.186;5.720;2023-04-28T09:09:26;99203.22;;;22.97;42.97
52975;BME280;38839;45.186;5.720;2023-04-28T09:14:24;99200.44;;;22.99;43.17
52975;BME280;38839;45.186;5.720;2023-04-28T09:16:50;99194.94;;;23.03;43.12
52975;BME280;38839;45.186;5.720;2023-04-28T09:19:16;99187.47;;;23.10;42.73
52975;BME280;38839;45.186;5.720;2023-04-28T09:21:54;99187.75;;;23.21;42.36
52975;BME280;38839;45.186;5.720;2023-04-28T09:24:36;99196.44;;;23.41;42.31
52975;BME280;38839;45.186;5.720;2023-04-28T09:27:06;99196.09;;;23.31;42.44
52975;BME280;38839;45.186;5.720;2023-04-28T09:29:35;99186.06;;;23.03;42.97
52975;BME280;38839;45.186;5.720;2023-04-28T09:32:14;99178.03;;;23.04;42.82
52975;BME280;38839;45.186;5.720;2023-04-28T09:34:53;99176.16;;;23.54;42.22
52975;BME280;38839;45.186;5.720;2023-04-28T09:37:22;99172.72;;;23.52;42.14
52975;BME280;38839;45.186;5.720;2023-04-28T09:39:51;99174.44;;;23.21;42.45
52975;BME280;38839;45.186;5.720;2023-04-28T09:42:36;99163.97;;;23.18;42.69
52975;BME280;38839;45.186;5.720;2023-04-28T09:45:12;99160.09;;;23.40;42.50
52975;BME280;38839;45.186;5.720;2023-04-28T09:47:43;99154.88;;;23.86;41.60
52975;BME280;38839;45.186;5.720;2023-04-28T09:50:15;99159.91;;;23.75;41.95
52975;BME280;38839;45.186;5.720;2023-04-28T09:52:42;99145.59;;;23.61;42.45
52975;BME280;38839;45.186;5.720;2023-04-28T09:55:10;99150.06;;;23.45;42.51
52975;BME280;38839;45.186;5.720;2023-04-28T09:57:37;99141.66;;;23.37;42.50
52975;BME280;38839;45.186;5.720;2023-04-28T10:00:06;99139.06;;;23.35;42.81
52975;BME280;38839;45.186;5.720;2023-04-28T10:02:34;99139.78;;;23.39;42.82
52975;BME280;38839;45.186;5.720;2023-04-28T10:05:00;99138.91;;;23.38;42.98
52975;BME280;38839;45.186;5.720;2023-04-28T10:07:26;99143.25;;;23.23;43.24
52975;BME280;38839;45.186;5.720;2023-04-28T10:09:52;99140.38;;;22.95;43.71
52975;BME280;38839;45.186;5.720;2023-04-28T10:12:20;99150.22;;;23.10;42.96
52975;BME280;38839;45.186;5.720;2023-04-28T10:14:47;99140.88;;;22.85;43.26
52975;BME280;38839;45.186;5.720;2023-04-28T10:17:21;99145.31;;;22.69;44.02
52975;BME280;38839;45.186;5.720;2023-04-28T10:19:51;99146.41;;;22.65;44.33
52975;BME280;38839;45.186;5.720;2023-04-28T10:22:28;99149.47;;;22.57;44.02
52975;BME280;38839;45.186;5.720;2023-04-28T10:27:44;99143.88;;;23.13;43.07
52975;BME280;38839;45.186;5.720;2023-04-28T10:30:11;99136.84;;;23.43;42.58
52975;BME280;38839;45.186;5.720;2023-04-28T10:32:38;99146.78;;;23.40;42.48
52975;BME280;38839;45.186;5.720;2023-04-28T10:38:09;99127.88;;;23.60;42.88
52975;BME280;38839;45.186;5.720;2023-04-28T10:40:39;99132.88;;;23.82;42.40
52975;BME280;38839;45.186;5.720;2023-04-28T10:43:06;99118.63;;;23.67;42.67
52975;BME280;38839;45.186;5.720;2023-04-28T10:56:25;99099.44;;;23.77;43.02
52975;BME280;38839;45.186;5.720;2023-04-28T10:58:55;99099.34;;;23.94;42.97
52975;BME280;38839;45.186;5.720;2023-04-28T11:06:38;99090.66;;;24.21;42.39
52975;BME280;38839;45.186;5.720;2023-04-28T11:16:50;99069.31;;;24.21;42.87
52975;BME280;38839;45.186;5.720;2023-04-28T11:19:23;99074.06;;;24.16;42.76
52975;BME280;38839;45.186;5.720;2023-04-28T11:21:50;99076.56;;;24.33;42.53
52975;BME280;38839;45.186;5.720;2023-04-28T11:24:16;99069.13;;;24.24;42.64
52975;BME280;38839;45.186;5.720;2023-04-28T11:26:42;99068.09;;;24.26;42.55
52975;BME280;38839;45.186;5.720;2023-04-28T11:29:08;99050.72;;;24.05;42.85
52975;BME280;38839;45.186;5.720;2023-04-28T11:31:34;99054.47;;;24.17;42.87
52975;BME280;38839;45.186;5.720;2023-04-28T11:34:11;99044.00;;;24.42;42.69
52975;BME280;38839;45.186;5.720;2023-04-28T11:36:39;99033.28;;;24.58;42.23
52975;BME280;38839;45.186;5.720;2023-04-28T11:39:07;99030.88;;;24.68;42.15
52975;BME280;38839;45.186;5.720;2023-04-28T11:41:37;99029.44;;;24.77;41.99
52975;BME280;38839;45.186;5.720;2023-04-28T11:44:22;99029.72;;;24.86;41.51
52975;BME280;38839;45.186;5.720;2023-04-28T11:46:50;99027.13;;;24.85;41.88
52975;BME280;38839;45.186;5.720;2023-04-28T11:49:19;99021.47;;;24.62;41.94
52975;BME280;38839;45.186;5.720;2023-04-28T11:51:45;99021.75;;;24.58;42.27
52975;BME280;38839;45.186;5.720;2023-04-28T11:54:13;99018.69;;;24.35;42.79
52975;BME280;38839;45.186;5.720;2023-04-28T11:56:40;99015.81;;;24.38;42.83
52975;BME280;38839;45.186;5.720;2023-04-28T11:59:09;99007.25;;;24.47;42.45
52975;BME280;38839;45.186;5.720;2023-04-28T12:01:46;99000.41;;;24.58;42.56
52975;BME280;38839;45.186;5.720;2023-04-28T12:04:12;98997.88;;;24.83;42.31
52975;BME280;38839;45.186;5.720;2023-04-28T12:06:39;98998.09;;;24.80;42.39
52975;BME280;38839;45.186;5.720;2023-04-28T12:09:15;98994.28;;;24.84;41.96
52975;BME280;38839;45.186;5.720;2023-04-28T12:11:54;98996.06;;;24.98;42.15
52975;BME280;38839;45.186;5.720;2023-04-28T12:14:21;98992.53;;;24.83;42.17
52975;BME280;38839;45.186;5.720;2023-04-28T12:16:46;98994.06;;;24.87;42.47
52975;BME280;38839;45.186;5.720;2023-04-28T12:19:13;98996.06;;;24.98;42.38
52975;BME280;38839;45.186;5.720;2023-04-28T12:21:40;98988.41;;;25.06;41.89
52975;BME280;38839;45.186;5.720;2023-04-28T12:24:16;98991.53;;;25.13;42.08
52975;BME280;38839;45.186;5.720;2023-04-28T12:26:42;98984.28;;;25.15;41.76
52975;BME280;38839;45.186;5.720;2023-04-28T12:29:08;98986.19;;;25.13;41.59
52975;BME280;38839;45.186;5.720;2023-04-28T12:31:49;98984.03;;;25.18;42.21
52975;BME280;38839;45.186;5.720;2023-04-28T12:34:17;98988.25;;;25.22;42.07
52975;BME280;38839;45.186;5.720;2023-04-28T12:36:42;98990.53;;;25.28;41.73
52975;BME280;38839;45.186;5.720;2023-04-28T12:39:14;98991.28;;;25.30;42.32
52975;BME280;38839;45.186;5.720;2023-04-28T12:41:41;98986.81;;;25.31;42.46
52975;BME280;38839;45.186;5.720;2023-04-28T12:44:06;98985.94;;;25.30;42.00
52975;BME280;38839;45.186;5.720;2023-04-28T12:46:32;98982.50;;;25.28;41.79
52975;BME280;38839;45.186;5.720;2023-04-28T12:48:57;98981.16;;;25.36;42.03
52975;BME280;38839;45.186;5.720;2023-04-28T12:51:23;98984.72;;;25.49;41.74
52975;BME280;38839;45.186;5.720;2023-04-28T12:53:48;98988.34;;;25.48;41.86
52975;BME280;38839;45.186;5.720;2023-04-28T12:56:14;98979.19;;;25.52;41.50
52975;BME280;38839;45.186;5.720;2023-04-28T12:58:39;98975.53;;;25.53;41.69
52975;BME280;38839;45.186;5.720;2023-04-28T13:01:05;98969.16;;;25.68;41.92
52975;BME280;38839;45.186;5.720;2023-04-28T13:03:30;98971.19;;;25.78;41.41
52975;BME280;38839;45.186;5.720;2023-04-28T13:05:56;98976.66;;;25.89;41.02
52975;BME280;38839;45.186;5.720;2023-04-28T13:08:21;98966.31;;;25.97;41.23
52975;BME280;38839;45.186;5.720;2023-04-28T13:10:47;98961.28;;;26.05;41.13
52975;BME280;38839;45.186;5.720;2023-04-28T13:13:12;98958.19;;;26.12;41.01
52975;BME280;38839;45.186;5.720;2023-04-28T13:15:37;98957.97;;;26.15;40.98
52975;BME280;38839;45.186;5.720;2023-04-28T13:18:03;98960.97;;;26.36;40.40
52975;BME280;38839;45.186;5.720;2023-04-28T13:20:28;98959.34;;;26.46;40.13
52975;BME280;38839;45.186;5.720;2023-04-28T13:22:54;98957.59;;;26.58;40.17
52975;BME280;38839;45.186;5.720;2023-04-28T13:25:19;98954.16;;;26.56;39.66
52975;BME280;38839;45.186;5.720;2023-04-28T13:27:46;98953.75;;;26.62;39.81
52975;BME280;38839;45.186;5.720;2023-04-28T13:30:12;98957.59;;;26.71;39.79